PWSweather.com
Personal Weather Stations
Station Observations
NYERIN
South Erin, Erin, NY 14838-9545

South ErinErin, NY 14838-9545

Lat: 42.150605, Lon: -76.654038

Elevation: 1663

Station Type: Davis VP Pro II+

http://southerin-ny.org/wx.php

Latest ConditionsUpdated 8:12:00 AM EDT Thursday, Jun 29, 2017
Currently Today's Max Today's Min Today's Average
Temperature 60.4°F15.8°C 60.4°F15.8°C 57.5°F14.2°C 58.5°F14.7°C
Dew Point 56.2°F13.4°C 56.6°F13.7°C 53.2°F11.8°C 54.5°F12.5°C
Winds Calm Calm Calm SCalm S - Calm Calm
Wind Gusts 3.5 mph5.6 kmh 3.5 mph5.6 kmh - -
Humidity 86% 90% 83% 87%
Pressure 30.03 in1016.9 mb 30.07 in1018.3 mb 30.02 in1016.6 mb -
Hour Temp Dew Point Humidity Winds Wind Gusts Pressure Precip Precip Rate Daily Precip Total
08:12 AM 60.4°F15.8°C 56.2°F13.4°C 86% Calm Calm 3.5 mph5.6 kmh 30.03 in1016.9 mb - 0.00 in0.0 mm 0.00 in0.0 mm
08:02 AM 60.2°F15.7°C 56.3°F13.5°C 87% Calm Calm 2.3 mph3.7 kmh 30.02 in1016.6 mb - 0.00 in0.0 mm 0.00 in0.0 mm
07:52 AM 60.1°F15.6°C 56.5°F13.6°C 88% Calm Calm 2.3 mph3.7 kmh 30.03 in1016.9 mb - 0.00 in0.0 mm 0.00 in0.0 mm
07:42 AM 59.8°F15.4°C 56.6°F13.7°C 89% Calm Calm 1.2 mph1.9 kmh 30.04 in1017.3 mb - 0.00 in0.0 mm 0.00 in0.0 mm
07:32 AM 59.5°F15.3°C 56.6°F13.7°C 90% Calm Calm 1.2 mph1.9 kmh 30.03 in1016.9 mb - 0.00 in0.0 mm 0.00 in0.0 mm
07:22 AM 59.0°F15.0°C 56.1°F13.4°C 90% Calm Calm -- 30.04 in1017.3 mb - 0.00 in0.0 mm 0.00 in0.0 mm
07:12 AM 58.8°F14.9°C 55.8°F13.2°C 90% Calm Calm -- 30.04 in1017.3 mb - 0.00 in0.0 mm 0.00 in0.0 mm
07:02 AM 58.5°F14.7°C 55.3°F12.9°C 89% Calm Calm -- 30.05 in1017.6 mb - 0.00 in0.0 mm 0.00 in0.0 mm
06:52 AM 58.3°F14.6°C 55.1°F12.8°C 89% Calm Calm -- 30.05 in1017.6 mb - 0.00 in0.0 mm 0.00 in0.0 mm
06:42 AM 58.3°F14.6°C 55.1°F12.8°C 89% Calm Calm -- 30.05 in1017.6 mb - 0.00 in0.0 mm 0.00 in0.0 mm
06:32 AM 58.1°F14.5°C 54.6°F12.6°C 88% Calm Calm 1.2 mph1.9 kmh 30.06 in1017.9 mb - 0.00 in0.0 mm 0.00 in0.0 mm
06:22 AM 58.1°F14.5°C 54.6°F12.6°C 88% Calm Calm -- 30.06 in1017.9 mb - 0.00 in0.0 mm 0.00 in0.0 mm
06:12 AM 58.1°F14.5°C 54.6°F12.6°C 88% Calm Calm -- 30.06 in1017.9 mb - 0.00 in0.0 mm 0.00 in0.0 mm
06:02 AM 58.3°F14.6°C 54.8°F12.7°C 88% Calm Calm 1.2 mph1.9 kmh 30.06 in1017.9 mb - 0.00 in0.0 mm 0.00 in0.0 mm
05:52 AM 58.3°F14.6°C 54.4°F12.4°C 87% Calm Calm -- 30.06 in1017.9 mb - 0.00 in0.0 mm 0.00 in0.0 mm
05:42 AM 58.4°F14.7°C 54.5°F12.5°C 87% Calm Calm -- 30.06 in1017.9 mb - 0.00 in0.0 mm 0.00 in0.0 mm
05:32 AM 58.4°F14.7°C 54.2°F12.3°C 86% Calm Calm -- 30.06 in1017.9 mb - 0.00 in0.0 mm 0.00 in0.0 mm
05:22 AM 58.6°F14.8°C 54.4°F12.4°C 86% Calm Calm 1.2 mph1.9 kmh 30.06 in1017.9 mb - 0.00 in0.0 mm 0.00 in0.0 mm
05:12 AM 58.7°F14.8°C 54.8°F12.7°C 87% Calm Calm -- 30.06 in1017.9 mb - 0.00 in0.0 mm 0.00 in0.0 mm
05:02 AM 58.7°F14.8°C 54.8°F12.7°C 87% Calm Calm -- 30.05 in1017.6 mb - 0.00 in0.0 mm 0.00 in0.0 mm
04:52 AM 58.6°F14.8°C 54.1°F12.3°C 85% Calm Calm -- 30.05 in1017.6 mb - 0.00 in0.0 mm 0.00 in0.0 mm
04:42 AM 58.6°F14.8°C 54.4°F12.4°C 86% Calm Calm -- 30.06 in1017.9 mb - 0.00 in0.0 mm 0.00 in0.0 mm
04:32 AM 58.6°F14.8°C 54.4°F12.4°C 86% Calm Calm -- 30.06 in1017.9 mb - 0.00 in0.0 mm 0.00 in0.0 mm
04:22 AM 58.7°F14.8°C 54.8°F12.7°C 87% Calm Calm -- 30.06 in1017.9 mb - 0.00 in0.0 mm 0.00 in0.0 mm
04:12 AM 58.7°F14.8°C 54.5°F12.5°C 86% Calm Calm -- 30.05 in1017.6 mb - 0.00 in0.0 mm 0.00 in0.0 mm
04:02 AM 58.9°F14.9°C 54.7°F12.6°C 86% Calm Calm -- 30.06 in1017.9 mb - 0.00 in0.0 mm 0.00 in0.0 mm
03:52 AM 58.9°F14.9°C 54.7°F12.6°C 86% Calm Calm -- 30.06 in1017.9 mb - 0.00 in0.0 mm 0.00 in0.0 mm
03:42 AM 58.9°F14.9°C 54.7°F12.6°C 86% Calm Calm -- 30.06 in1017.9 mb - 0.00 in0.0 mm 0.00 in0.0 mm
03:32 AM 58.9°F14.9°C 54.4°F12.4°C 85% Calm Calm -- 30.06 in1017.9 mb - 0.00 in0.0 mm 0.00 in0.0 mm
03:22 AM 58.9°F14.9°C 54.4°F12.4°C 85% Calm Calm -- 30.06 in1017.9 mb - 0.00 in0.0 mm 0.00 in0.0 mm
03:12 AM 58.6°F14.8°C 53.8°F12.1°C 84% Calm Calm -- 30.06 in1017.9 mb - 0.00 in0.0 mm 0.00 in0.0 mm
03:02 AM 58.4°F14.7°C 53.3°F11.8°C 83% Calm Calm 1.2 mph1.9 kmh 30.06 in1017.9 mb - 0.00 in0.0 mm 0.00 in0.0 mm
02:52 AM 58.3°F14.6°C 53.5°F11.9°C 84% Calm Calm -- 30.06 in1017.9 mb - 0.00 in0.0 mm 0.00 in0.0 mm
02:42 AM 58.3°F14.6°C 53.8°F12.1°C 85% Calm Calm -- 30.07 in1018.3 mb - 0.00 in0.0 mm 0.00 in0.0 mm
02:32 AM 58.1°F14.5°C 53.9°F12.2°C 86% Calm Calm -- 30.07 in1018.3 mb - 0.00 in0.0 mm 0.00 in0.0 mm
02:22 AM 58.0°F14.4°C 53.8°F12.1°C 86% Calm Calm -- 30.07 in1018.3 mb - 0.00 in0.0 mm 0.00 in0.0 mm
02:12 AM 58.0°F14.4°C 54.2°F12.3°C 87% Calm Calm -- 30.07 in1018.3 mb - 0.00 in0.0 mm 0.00 in0.0 mm
02:02 AM 57.9°F14.4°C 54.0°F12.2°C 87% Calm Calm -- 30.06 in1017.9 mb - 0.00 in0.0 mm 0.00 in0.0 mm
01:52 AM 57.6°F14.2°C 53.8°F12.1°C 87% Calm Calm -- 30.07 in1018.3 mb - 0.00 in0.0 mm 0.00 in0.0 mm
01:42 AM 57.6°F14.2°C 54.1°F12.3°C 88% Calm Calm -- 30.07 in1018.3 mb - 0.00 in0.0 mm 0.00 in0.0 mm
01:32 AM 57.5°F14.2°C 54.0°F12.2°C 88% Calm Calm -- 30.07 in1018.3 mb - 0.00 in0.0 mm 0.00 in0.0 mm
01:22 AM 57.5°F14.2°C 53.7°F12.1°C 87% Calm Calm -- 30.07 in1018.3 mb - 0.00 in0.0 mm 0.00 in0.0 mm
01:02 AM 57.6°F14.2°C 53.4°F11.9°C 86% Calm Calm -- 30.07 in1018.3 mb - 0.00 in0.0 mm 0.00 in0.0 mm
12:52 AM 57.8°F14.3°C 53.6°F12.0°C 86% Calm Calm -- 30.06 in1017.9 mb - 0.00 in0.0 mm 0.00 in0.0 mm
12:42 AM 58.0°F14.4°C 53.8°F12.1°C 86% Calm Calm -- 30.06 in1017.9 mb - 0.00 in0.0 mm 0.00 in0.0 mm
12:32 AM 58.0°F14.4°C 53.2°F11.8°C 84% Calm Calm -- 30.06 in1017.9 mb - 0.00 in0.0 mm 0.00 in0.0 mm
12:22 AM 58.0°F14.4°C 53.2°F11.8°C 84% Calm Calm -- 30.06 in1017.9 mb - 0.00 in0.0 mm 0.00 in0.0 mm
12:12 AM 58.2°F14.6°C 53.7°F12.1°C 85% Calm Calm -- 30.05 in1017.6 mb - 0.00 in0.0 mm 0.00 in0.0 mm
12:02 AM 58.4°F14.7°C 53.6°F12.0°C 84% Calm Calm -- 30.05 in1017.6 mb - 0.00 in0.0 mm 0.00 in0.0 mm